createdAt,value
2022-12-31T00:07:57.508Z,2
2022-12-31T00:46:57.509Z,2
2022-12-31T01:34:57.514Z,1
2022-12-31T02:38:57.767Z,1
2022-12-31T03:50:57.543Z,1
2022-12-31T06:20:57.579Z,1
2022-12-31T09:49:57.598Z,1
2022-12-31T12:12:57.754Z,1
2022-12-31T18:24:15.661Z,2
2022-12-31T19:17:15.186Z,2
2022-12-31T19:19:15.216Z,2
2022-12-31T19:20:15.211Z,2
2022-12-31T19:21:15.201Z,1
2022-12-31T19:22:15.320Z,2
2022-12-31T19:23:15.201Z,2
2022-12-31T19:25:15.209Z,2
2022-12-31T19:26:15.201Z,2
2022-12-31T19:27:15.197Z,2
2022-12-31T19:28:15.202Z,2
2022-12-31T19:29:15.191Z,2
2022-12-31T19:30:15.194Z,2
2022-12-31T19:31:15.272Z,2
2022-12-31T19:32:15.196Z,2
2022-12-31T19:33:15.241Z,2
2022-12-31T19:35:15.200Z,2
2022-12-31T19:37:15.208Z,2
2022-12-31T19:38:15.204Z,2
2022-12-31T19:39:15.218Z,2
2022-12-31T19:40:15.222Z,2
2022-12-31T19:41:15.211Z,2
2022-12-31T19:42:15.189Z,2
2022-12-31T19:43:15.204Z,2
2022-12-31T19:44:15.194Z,2
2022-12-31T19:45:15.197Z,3
2022-12-31T19:46:15.263Z,2
2022-12-31T19:47:15.198Z,2
2022-12-31T19:48:15.206Z,2
2022-12-31T19:49:15.191Z,2
2022-12-31T19:50:15.202Z,2
2022-12-31T19:51:15.208Z,2
2022-12-31T19:52:15.193Z,2
2022-12-31T19:53:15.224Z,2
2022-12-31T19:54:15.198Z,2
2022-12-31T19:55:15.202Z,2
2022-12-31T19:56:15.201Z,2
2022-12-31T19:57:15.206Z,2
2022-12-31T19:58:15.195Z,2
2022-12-31T19:59:15.229Z,2
2022-12-31T20:00:15.200Z,2
2022-12-31T20:01:15.282Z,2
2022-12-31T20:02:15.378Z,2
2022-12-31T20:03:15.339Z,2
2022-12-31T20:04:15.206Z,2
2022-12-31T20:05:15.208Z,2
2022-12-31T20:06:15.193Z,2
2022-12-31T20:07:15.209Z,2
2022-12-31T20:08:15.215Z,2
2022-12-31T20:09:15.197Z,2
2022-12-31T20:10:15.205Z,2
2022-12-31T20:11:15.204Z,3
2022-12-31T20:12:15.202Z,2
2022-12-31T20:13:15.195Z,2
2022-12-31T20:14:15.196Z,2
2022-12-31T20:15:15.215Z,2
2022-12-31T20:16:15.365Z,2
2022-12-31T20:17:15.200Z,2
2022-12-31T20:18:15.199Z,3
2022-12-31T20:19:15.201Z,2
2022-12-31T20:20:15.225Z,2
2022-12-31T20:21:15.193Z,2
2022-12-31T20:22:15.199Z,3
2022-12-31T20:23:15.200Z,2
2022-12-31T20:24:15.241Z,2
2022-12-31T20:25:15.265Z,2
2022-12-31T20:26:15.207Z,2
2022-12-31T20:27:18.581Z,2
2022-12-31T20:28:15.200Z,2
2022-12-31T20:29:15.198Z,2
2022-12-31T20:30:15.199Z,3
2022-12-31T20:32:15.215Z,2
2022-12-31T20:33:19.018Z,2
2022-12-31T20:34:15.203Z,2
2022-12-31T20:35:15.242Z,2
2022-12-31T20:36:15.247Z,2
2022-12-31T20:37:15.209Z,3
2022-12-31T20:38:15.240Z,3
2022-12-31T20:39:15.219Z,3
2022-12-31T20:40:15.192Z,2
2022-12-31T20:41:15.232Z,2
2022-12-31T20:42:15.202Z,2
2022-12-31T20:43:15.207Z,3
2022-12-31T20:44:15.204Z,2
2022-12-31T20:45:15.201Z,3
2022-12-31T20:46:16.304Z,2
2022-12-31T20:47:15.208Z,2
2022-12-31T20:48:15.204Z,3
2022-12-31T20:49:15.199Z,2
2022-12-31T20:50:15.272Z,2
2022-12-31T20:51:15.232Z,3
2022-12-31T20:52:15.213Z,2
2022-12-31T20:53:15.212Z,3
2022-12-31T20:54:15.199Z,2
2022-12-31T20:55:15.230Z,3
2022-12-31T20:56:15.211Z,2
2022-12-31T20:57:15.217Z,3
2022-12-31T20:58:15.209Z,3
2022-12-31T20:59:15.214Z,2
2022-12-31T21:00:15.206Z,3
2022-12-31T21:01:15.391Z,2
2022-12-31T21:02:29.517Z,2
2022-12-31T21:03:36.893Z,3
2022-12-31T21:04:15.550Z,3
2022-12-31T21:05:15.370Z,3
2022-12-31T21:06:15.278Z,2
2022-12-31T21:07:15.331Z,2
2022-12-31T21:08:15.398Z,2
2022-12-31T21:09:15.267Z,2
2022-12-31T21:10:15.246Z,2
2022-12-31T21:11:15.256Z,2
2022-12-31T21:12:15.255Z,2
2022-12-31T21:13:15.258Z,2
2022-12-31T21:14:15.260Z,3
2022-12-31T21:15:15.258Z,2
2022-12-31T21:16:15.335Z,2
2022-12-31T21:17:15.258Z,3
2022-12-31T21:18:15.251Z,2
2022-12-31T21:19:15.281Z,3
2022-12-31T21:20:15.272Z,3
2022-12-31T21:21:15.258Z,2
2022-12-31T21:22:15.252Z,2
2022-12-31T21:23:15.255Z,3
2022-12-31T21:24:20.172Z,2
2022-12-31T21:25:15.261Z,2
2022-12-31T21:26:15.286Z,2
2022-12-31T21:27:15.261Z,2
2022-12-31T21:28:15.264Z,3
2022-12-31T21:29:15.270Z,2
2022-12-31T21:30:19.551Z,2
2022-12-31T21:31:15.374Z,3
2022-12-31T21:32:15.261Z,2
2022-12-31T21:33:15.259Z,3
2022-12-31T21:34:15.256Z,2
2022-12-31T21:35:42.313Z,2
2022-12-31T21:36:15.274Z,2
2022-12-31T21:37:15.324Z,2
2022-12-31T21:38:15.266Z,3
2022-12-31T21:39:15.261Z,3
2022-12-31T21:40:15.256Z,2
2022-12-31T21:41:15.258Z,3
2022-12-31T21:42:15.266Z,3
2022-12-31T21:43:15.271Z,3
2022-12-31T21:45:15.278Z,3
2022-12-31T21:46:15.315Z,2
2022-12-31T21:47:47.452Z,2
2022-12-31T21:48:15.266Z,3
2022-12-31T21:49:15.273Z,3
2022-12-31T21:50:15.268Z,3
2022-12-31T21:51:15.256Z,2
2022-12-31T21:52:15.273Z,3
2022-12-31T21:53:20.200Z,3
2022-12-31T21:54:15.267Z,3
2022-12-31T21:55:15.264Z,2
2022-12-31T21:57:15.255Z,3
2022-12-31T21:58:25.983Z,2
2022-12-31T21:59:15.333Z,3
2022-12-31T22:00:41.172Z,2
2022-12-31T22:01:15.497Z,3
2022-12-31T22:02:15.726Z,3
2022-12-31T22:03:15.429Z,3
2022-12-31T22:04:43.041Z,3
2022-12-31T22:05:21.427Z,3
2022-12-31T22:06:15.263Z,3
2022-12-31T22:07:15.302Z,3
2022-12-31T22:08:15.263Z,3
2022-12-31T22:09:15.267Z,3
2022-12-31T22:10:15.267Z,2
2022-12-31T22:11:15.285Z,2
2022-12-31T22:12:15.319Z,2
2022-12-31T22:13:15.350Z,3
2022-12-31T22:14:16.036Z,2
2022-12-31T22:15:16.368Z,3
2022-12-31T22:16:15.351Z,3
2022-12-31T22:17:15.280Z,3
2022-12-31T22:18:15.265Z,2
2022-12-31T22:19:15.267Z,2
2022-12-31T22:20:27.105Z,2
2022-12-31T22:21:19.487Z,3
2022-12-31T22:22:15.271Z,3
2022-12-31T22:23:15.269Z,2
2022-12-31T22:24:15.286Z,3
2022-12-31T22:25:15.290Z,2
2022-12-31T22:26:15.282Z,2
2022-12-31T22:27:28.323Z,2
2022-12-31T22:28:38.718Z,3
2022-12-31T22:29:15.338Z,2
2022-12-31T22:30:15.261Z,3
2022-12-31T22:31:15.359Z,3
2022-12-31T22:32:15.263Z,2
2022-12-31T22:33:15.263Z,2
2022-12-31T22:34:15.273Z,2
2022-12-31T22:35:15.262Z,2
2022-12-31T22:36:15.270Z,2
2022-12-31T22:37:46.364Z,2
2022-12-31T22:38:15.271Z,3
2022-12-31T22:39:44.667Z,3
2022-12-31T22:40:15.288Z,2
2022-12-31T22:41:15.278Z,2
2022-12-31T22:42:15.269Z,2
2022-12-31T22:43:15.297Z,3
2022-12-31T22:44:15.296Z,2
2022-12-31T22:45:15.274Z,2
2022-12-31T22:46:15.317Z,2
2022-12-31T22:47:15.275Z,3
2022-12-31T22:48:15.282Z,3
2022-12-31T22:49:15.267Z,3
2022-12-31T22:50:15.273Z,3
2022-12-31T22:51:15.276Z,2
2022-12-31T22:52:15.272Z,3
2022-12-31T22:53:15.269Z,3
2022-12-31T22:54:15.281Z,3
2022-12-31T22:57:20.000Z,2
2022-12-31T22:59:15.299Z,3
2022-12-31T23:00:15.285Z,2
2022-12-31T23:01:15.335Z,3
2022-12-31T23:02:15.341Z,3
2022-12-31T23:03:15.296Z,3
2022-12-31T23:04:15.350Z,3
2022-12-31T23:05:16.481Z,3
2022-12-31T23:06:15.276Z,3
2022-12-31T23:07:15.284Z,3
2022-12-31T23:08:22.333Z,4
2022-12-31T23:09:15.278Z,4
2022-12-31T23:10:15.281Z,4
2022-12-31T23:11:15.288Z,4
2022-12-31T23:12:15.273Z,5
2022-12-31T23:13:15.282Z,6
2022-12-31T23:14:15.290Z,5
2022-12-31T23:15:15.278Z,7
2022-12-31T23:16:15.350Z,7
2022-12-31T23:17:29.835Z,8
2022-12-31T23:18:15.275Z,9
2022-12-31T23:19:15.275Z,10
2022-12-31T23:20:15.280Z,11
2022-12-31T23:21:15.279Z,13
2022-12-31T23:22:15.279Z,12
2022-12-31T23:23:15.274Z,12
2022-12-31T23:24:20.372Z,13
2022-12-31T23:25:15.282Z,14
2022-12-31T23:26:15.275Z,15
2022-12-31T23:27:15.275Z,15
2022-12-31T23:28:15.273Z,15
2022-12-31T23:29:15.272Z,16
2022-12-31T23:30:15.275Z,13
2022-12-31T23:31:15.332Z,16
2022-12-31T23:32:15.287Z,16
2022-12-31T23:33:15.286Z,17
2022-12-31T23:34:15.276Z,17
2022-12-31T23:35:15.287Z,18
2022-12-31T23:36:15.306Z,17
2022-12-31T23:37:15.295Z,16
2022-12-31T23:38:15.271Z,17
2022-12-31T23:39:15.284Z,21
2022-12-31T23:40:20.831Z,19
2022-12-31T23:41:15.283Z,18
2022-12-31T23:42:15.289Z,17
2022-12-31T23:43:15.273Z,19
2022-12-31T23:44:15.283Z,20
2022-12-31T23:45:15.307Z,19
2022-12-31T23:46:15.297Z,18
2022-12-31T23:47:15.284Z,17
2022-12-31T23:48:15.291Z,15
2022-12-31T23:49:15.276Z,15
2022-12-31T23:50:15.303Z,15
2022-12-31T23:51:15.291Z,14
2022-12-31T23:52:15.290Z,14
2022-12-31T23:53:15.274Z,15
2022-12-31T23:54:15.282Z,13
2022-12-31T23:55:15.288Z,13
2022-12-31T23:56:22.817Z,13
2022-12-31T23:57:15.281Z,13
2022-12-31T23:58:15.282Z,12
2022-12-31T23:59:15.283Z,11
